sensor_id;sensor_type;location;lat;lon;timestamp;P1;durP1;ratioP1;P2;durP2;ratioP2
78844;SDS011;68195;50.854;2.860;2023-04-15T00:01:25;5.43;;;2.22;;
78844;SDS011;68195;50.854;2.860;2023-04-15T00:03:54;5.45;;;2.88;;
78844;SDS011;68195;50.854;2.860;2023-04-15T00:06:20;3.20;;;2.45;;
78844;SDS011;68195;50.854;2.860;2023-04-15T00:08:46;3.03;;;2.58;;
78844;SDS011;68195;50.854;2.860;2023-04-15T00:11:12;5.30;;;2.92;;
78844;SDS011;68195;50.854;2.860;2023-04-15T00:13:38;3.22;;;2.80;;
78844;SDS011;68195;50.854;2.860;2023-04-15T00:16:05;4.03;;;2.67;;
78844;SDS011;68195;50.854;2.860;2023-04-15T00:18:32;3.25;;;2.50;;
78844;SDS011;68195;50.854;2.860;2023-04-15T00:20:57;3.97;;;2.65;;
78844;SDS011;68195;50.854;2.860;2023-04-15T00:23:23;3.25;;;2.55;;
78844;SDS011;68195;50.854;2.860;2023-04-15T00:25:49;3.67;;;2.58;;
78844;SDS011;68195;50.854;2.860;2023-04-15T00:28:15;3.65;;;2.58;;
78844;SDS011;68195;50.854;2.860;2023-04-15T00:30:42;4.10;;;2.70;;
78844;SDS011;68195;50.854;2.860;2023-04-15T00:33:08;5.00;;;3.90;;
78844;SDS011;68195;50.854;2.860;2023-04-15T00:35:34;5.60;;;3.20;;
78844;SDS011;68195;50.854;2.860;2023-04-15T00:38:02;5.50;;;2.95;;
78844;SDS011;68195;50.854;2.860;2023-04-15T00:40:31;4.90;;;2.80;;
78844;SDS011;68195;50.854;2.860;2023-04-15T00:42:59;3.97;;;3.25;;
78844;SDS011;68195;50.854;2.860;2023-04-15T00:45:25;3.95;;;2.65;;
78844;SDS011;68195;50.854;2.860;2023-04-15T00:47:52;3.75;;;3.00;;
78844;SDS011;68195;50.854;2.860;2023-04-15T00:50:21;5.57;;;3.40;;
78844;SDS011;68195;50.854;2.860;2023-04-15T00:55:12;3.67;;;3.07;;
78844;SDS011;68195;50.854;2.860;2023-04-15T00:57:38;4.20;;;2.83;;
78844;SDS011;68195;50.854;2.860;2023-04-15T01:00:04;5.38;;;3.10;;
78844;SDS011;68195;50.854;2.860;2023-04-15T01:02:33;3.97;;;2.88;;
78844;SDS011;68195;50.854;2.860;2023-04-15T01:05:01;4.38;;;2.95;;
78844;SDS011;68195;50.854;2.860;2023-04-15T01:07:28;3.72;;;2.92;;
78844;SDS011;68195;50.854;2.860;2023-04-15T01:09:56;5.18;;;3.35;;
78844;SDS011;68195;50.854;2.860;2023-04-15T01:12:21;6.25;;;3.08;;
78844;SDS011;68195;50.854;2.860;2023-04-15T01:14:52;4.38;;;3.15;;
78844;SDS011;68195;50.854;2.860;2023-04-15T01:17:23;5.32;;;3.00;;
78844;SDS011;68195;50.854;2.860;2023-04-15T01:19:49;3.50;;;2.53;;
78844;SDS011;68195;50.854;2.860;2023-04-15T01:24:41;3.38;;;2.50;;
78844;SDS011;68195;50.854;2.860;2023-04-15T01:27:13;2.97;;;2.58;;
78844;SDS011;68195;50.854;2.860;2023-04-15T01:29:41;3.97;;;2.80;;
78844;SDS011;68195;50.854;2.860;2023-04-15T01:32:09;3.53;;;2.80;;
78844;SDS011;68195;50.854;2.860;2023-04-15T01:34:37;4.80;;;3.50;;
78844;SDS011;68195;50.854;2.860;2023-04-15T01:37:02;5.05;;;2.75;;
78844;SDS011;68195;50.854;2.860;2023-04-15T01:39:27;4.95;;;3.38;;
78844;SDS011;68195;50.854;2.860;2023-04-15T01:41:53;5.15;;;3.75;;
78844;SDS011;68195;50.854;2.860;2023-04-15T01:44:18;3.78;;;3.33;;
78844;SDS011;68195;50.854;2.860;2023-04-15T01:46:44;4.93;;;4.00;;
78844;SDS011;68195;50.854;2.860;2023-04-15T01:49:09;5.47;;;3.47;;
78844;SDS011;68195;50.854;2.860;2023-04-15T01:51:34;6.60;;;4.47;;
78844;SDS011;68195;50.854;2.860;2023-04-15T01:54:00;6.07;;;4.07;;
78844;SDS011;68195;50.854;2.860;2023-04-15T01:56:28;4.50;;;3.85;;
78844;SDS011;68195;50.854;2.860;2023-04-15T01:58:53;5.78;;;4.25;;
78844;SDS011;68195;50.854;2.860;2023-04-15T02:01:21;7.60;;;4.70;;
78844;SDS011;68195;50.854;2.860;2023-04-15T02:03:47;6.10;;;4.22;;
78844;SDS011;68195;50.854;2.860;2023-04-15T02:06:14;6.18;;;3.75;;
78844;SDS011;68195;50.854;2.860;2023-04-15T02:08:40;8.57;;;4.45;;
78844;SDS011;68195;50.854;2.860;2023-04-15T02:11:05;6.20;;;4.70;;
78844;SDS011;68195;50.854;2.860;2023-04-15T02:13:30;8.45;;;4.70;;
78844;SDS011;68195;50.854;2.860;2023-04-15T02:16:01;5.78;;;4.20;;
78844;SDS011;68195;50.854;2.860;2023-04-15T02:18:27;5.57;;;4.30;;
78844;SDS011;68195;50.854;2.860;2023-04-15T02:20:55;5.78;;;4.75;;
78844;SDS011;68195;50.854;2.860;2023-04-15T02:23:24;5.10;;;4.28;;
78844;SDS011;68195;50.854;2.860;2023-04-15T02:25:53;5.07;;;4.03;;
78844;SDS011;68195;50.854;2.860;2023-04-15T02:28:18;6.15;;;4.10;;
78844;SDS011;68195;50.854;2.860;2023-04-15T02:30:46;6.22;;;4.28;;
78844;SDS011;68195;50.854;2.860;2023-04-15T02:33:12;4.97;;;3.92;;
78844;SDS011;68195;50.854;2.860;2023-04-15T02:35:37;5.72;;;4.15;;
78844;SDS011;68195;50.854;2.860;2023-04-15T02:38:06;8.02;;;4.97;;
78844;SDS011;68195;50.854;2.860;2023-04-15T02:40:31;6.25;;;4.25;;
78844;SDS011;68195;50.854;2.860;2023-04-15T02:42:59;6.38;;;3.92;;
78844;SDS011;68195;50.854;2.860;2023-04-15T02:45:25;8.95;;;4.63;;
78844;SDS011;68195;50.854;2.860;2023-04-15T02:47:55;6.70;;;4.35;;
78844;SDS011;68195;50.854;2.860;2023-04-15T02:50:23;7.32;;;4.72;;
78844;SDS011;68195;50.854;2.860;2023-04-15T02:55:15;4.32;;;3.80;;
78844;SDS011;68195;50.854;2.860;2023-04-15T02:57:42;6.47;;;4.28;;
78844;SDS011;68195;50.854;2.860;2023-04-15T03:00:07;6.10;;;4.63;;
78844;SDS011;68195;50.854;2.860;2023-04-15T03:02:35;7.38;;;4.72;;
78844;SDS011;68195;50.854;2.860;2023-04-15T03:05:02;6.78;;;4.68;;
78844;SDS011;68195;50.854;2.860;2023-04-15T03:07:28;4.38;;;3.58;;
78844;SDS011;68195;50.854;2.860;2023-04-15T03:09:53;5.40;;;4.13;;
78844;SDS011;68195;50.854;2.860;2023-04-15T03:12:21;6.30;;;3.58;;
78844;SDS011;68195;50.854;2.860;2023-04-15T03:14:49;5.00;;;3.63;;
78844;SDS011;68195;50.854;2.860;2023-04-15T03:17:14;6.32;;;3.78;;
78844;SDS011;68195;50.854;2.860;2023-04-15T03:19:40;5.05;;;3.65;;
78844;SDS011;68195;50.854;2.860;2023-04-15T03:22:05;5.03;;;3.47;;
78844;SDS011;68195;50.854;2.860;2023-04-15T03:24:31;5.47;;;3.92;;
78844;SDS011;68195;50.854;2.860;2023-04-15T03:26:56;5.38;;;4.28;;
78844;SDS011;68195;50.854;2.860;2023-04-15T03:29:22;6.25;;;3.72;;
78844;SDS011;68195;50.854;2.860;2023-04-15T03:31:47;7.63;;;4.03;;
78844;SDS011;68195;50.854;2.860;2023-04-15T03:34:13;6.20;;;4.63;;
78844;SDS011;68195;50.854;2.860;2023-04-15T03:36:43;5.65;;;4.28;;
78844;SDS011;68195;50.854;2.860;2023-04-15T03:39:08;10.43;;;5.13;;
78844;SDS011;68195;50.854;2.860;2023-04-15T03:41:34;6.75;;;4.38;;
78844;SDS011;68195;50.854;2.860;2023-04-15T03:43:59;7.82;;;4.72;;
78844;SDS011;68195;50.854;2.860;2023-04-15T03:46:25;9.02;;;5.20;;
78844;SDS011;68195;50.854;2.860;2023-04-15T03:48:50;9.48;;;6.15;;
78844;SDS011;68195;50.854;2.860;2023-04-15T03:51:20;8.90;;;7.20;;
78844;SDS011;68195;50.854;2.860;2023-04-15T03:53:48;10.10;;;6.68;;
78844;SDS011;68195;50.854;2.860;2023-04-15T03:56:14;8.57;;;5.70;;
78844;SDS011;68195;50.854;2.860;2023-04-15T03:58:39;12.65;;;7.93;;
78844;SDS011;68195;50.854;2.860;2023-04-15T04:01:09;11.65;;;9.30;;
78844;SDS011;68195;50.854;2.860;2023-04-15T04:03:35;11.98;;;8.30;;
78844;SDS011;68195;50.854;2.860;2023-04-15T04:06:01;11.60;;;8.27;;
78844;SDS011;68195;50.854;2.860;2023-04-15T04:08:27;10.70;;;7.30;;
78844;SDS011;68195;50.854;2.860;2023-04-15T04:10:54;10.90;;;7.85;;
78844;SDS011;68195;50.854;2.860;2023-04-15T04:13:22;12.05;;;7.68;;
78844;SDS011;68195;50.854;2.860;2023-04-15T04:15:48;11.73;;;7.30;;
78844;SDS011;68195;50.854;2.860;2023-04-15T04:18:15;11.50;;;7.35;;
78844;SDS011;68195;50.854;2.860;2023-04-15T04:20:41;12.15;;;7.57;;
78844;SDS011;68195;50.854;2.860;2023-04-15T04:23:06;11.73;;;8.10;;
78844;SDS011;68195;50.854;2.860;2023-04-15T04:25:31;12.98;;;7.88;;
78844;SDS011;68195;50.854;2.860;2023-04-15T04:27:57;12.93;;;8.15;;
78844;SDS011;68195;50.854;2.860;2023-04-15T04:30:25;13.02;;;7.70;;
78844;SDS011;68195;50.854;2.860;2023-04-15T04:32:51;11.45;;;7.22;;
78844;SDS011;68195;50.854;2.860;2023-04-15T04:35:16;11.88;;;7.72;;
78844;SDS011;68195;50.854;2.860;2023-04-15T04:37:41;9.55;;;6.20;;
78844;SDS011;68195;50.854;2.860;2023-04-15T04:40:09;8.05;;;6.20;;
78844;SDS011;68195;50.854;2.860;2023-04-15T04:42:35;8.27;;;5.72;;
78844;SDS011;68195;50.854;2.860;2023-04-15T04:45:00;8.98;;;5.93;;
78844;SDS011;68195;50.854;2.860;2023-04-15T04:47:26;7.90;;;5.35;;
78844;SDS011;68195;50.854;2.860;2023-04-15T04:49:54;7.45;;;5.70;;
78844;SDS011;68195;50.854;2.860;2023-04-15T04:52:19;8.65;;;5.50;;
78844;SDS011;68195;50.854;2.860;2023-04-15T04:54:44;8.55;;;5.93;;
78844;SDS011;68195;50.854;2.860;2023-04-15T04:57:12;6.80;;;5.20;;
78844;SDS011;68195;50.854;2.860;2023-04-15T04:59:38;8.32;;;5.93;;
78844;SDS011;68195;50.854;2.860;2023-04-15T05:02:06;8.93;;;5.43;;
78844;SDS011;68195;50.854;2.860;2023-04-15T05:04:31;7.93;;;5.05;;
78844;SDS011;68195;50.854;2.860;2023-04-15T05:06:57;6.25;;;4.18;;
78844;SDS011;68195;50.854;2.860;2023-04-15T05:09:23;7.60;;;5.10;;
78844;SDS011;68195;50.854;2.860;2023-04-15T05:11:51;7.72;;;5.13;;
78844;SDS011;68195;50.854;2.860;2023-04-15T05:14:16;6.05;;;5.03;;
78844;SDS011;68195;50.854;2.860;2023-04-15T05:16:46;9.88;;;6.30;;
78844;SDS011;68195;50.854;2.860;2023-04-15T05:19:14;8.68;;;5.72;;
78844;SDS011;68195;50.854;2.860;2023-04-15T05:21:41;8.40;;;5.88;;
78844;SDS011;68195;50.854;2.860;2023-04-15T05:24:07;9.60;;;5.55;;
78844;SDS011;68195;50.854;2.860;2023-04-15T05:26:35;9.80;;;6.15;;
78844;SDS011;68195;50.854;2.860;2023-04-15T05:29:03;9.73;;;6.78;;
78844;SDS011;68195;50.854;2.860;2023-04-15T05:31:28;7.55;;;5.97;;
78844;SDS011;68195;50.854;2.860;2023-04-15T05:33:56;10.93;;;6.43;;
78844;SDS011;68195;50.854;2.860;2023-04-15T05:36:21;8.68;;;6.85;;
78844;SDS011;68195;50.854;2.860;2023-04-15T05:38:52;7.25;;;5.57;;
78844;SDS011;68195;50.854;2.860;2023-04-15T05:41:20;7.75;;;5.80;;
78844;SDS011;68195;50.854;2.860;2023-04-15T05:43:46;7.65;;;6.30;;
78844;SDS011;68195;50.854;2.860;2023-04-15T05:46:11;6.72;;;5.38;;
78844;SDS011;68195;50.854;2.860;2023-04-15T05:48:37;7.25;;;5.65;;
78844;SDS011;68195;50.854;2.860;2023-04-15T05:51:02;8.15;;;5.75;;
78844;SDS011;68195;50.854;2.860;2023-04-15T05:53:30;8.40;;;5.90;;
78844;SDS011;68195;50.854;2.860;2023-04-15T05:55:56;9.25;;;7.22;;
78844;SDS011;68195;50.854;2.860;2023-04-15T05:58:24;11.57;;;8.48;;
78844;SDS011;68195;50.854;2.860;2023-04-15T06:00:49;14.93;;;8.65;;
78844;SDS011;68195;50.854;2.860;2023-04-15T06:03:17;12.77;;;8.55;;
78844;SDS011;68195;50.854;2.860;2023-04-15T06:05:43;14.07;;;8.50;;
78844;SDS011;68195;50.854;2.860;2023-04-15T06:08:09;13.88;;;8.90;;
78844;SDS011;68195;50.854;2.860;2023-04-15T06:13:03;13.93;;;8.35;;
78844;SDS011;68195;50.854;2.860;2023-04-15T06:15:28;17.27;;;9.23;;
78844;SDS011;68195;50.854;2.860;2023-04-15T06:17:56;13.75;;;9.77;;
78844;SDS011;68195;50.854;2.860;2023-04-15T06:20:27;16.42;;;9.88;;
78844;SDS011;68195;50.854;2.860;2023-04-15T06:22:55;16.08;;;10.40;;
78844;SDS011;68195;50.854;2.860;2023-04-15T06:25:21;17.58;;;10.65;;
78844;SDS011;68195;50.854;2.860;2023-04-15T06:27:47;15.85;;;11.52;;
78844;SDS011;68195;50.854;2.860;2023-04-15T06:30:12;19.50;;;12.75;;
78844;SDS011;68195;50.854;2.860;2023-04-15T06:32:38;19.98;;;11.95;;
78844;SDS011;68195;50.854;2.860;2023-04-15T06:35:06;17.55;;;11.23;;
78844;SDS011;68195;50.854;2.860;2023-04-15T06:37:31;18.02;;;11.20;;
78844;SDS011;68195;50.854;2.860;2023-04-15T06:39:57;16.42;;;10.75;;
78844;SDS011;68195;50.854;2.860;2023-04-15T06:42:25;16.20;;;10.63;;
78844;SDS011;68195;50.854;2.860;2023-04-15T06:44:50;16.20;;;9.88;;
78844;SDS011;68195;50.854;2.860;2023-04-15T06:47:18;14.27;;;9.65;;
78844;SDS011;68195;50.854;2.860;2023-04-15T06:49:43;17.23;;;9.88;;
78844;SDS011;68195;50.854;2.860;2023-04-15T06:52:11;17.27;;;10.02;;
78844;SDS011;68195;50.854;2.860;2023-04-15T06:54:39;16.08;;;9.85;;
78844;SDS011;68195;50.854;2.860;2023-04-15T06:57:07;12.60;;;9.10;;
78844;SDS011;68195;50.854;2.860;2023-04-15T06:59:36;16.55;;;9.75;;
78844;SDS011;68195;50.854;2.860;2023-04-15T07:02:01;13.85;;;9.32;;
78844;SDS011;68195;50.854;2.860;2023-04-15T07:04:31;15.05;;;9.95;;
78844;SDS011;68195;50.854;2.860;2023-04-15T07:06:57;12.18;;;8.85;;
78844;SDS011;68195;50.854;2.860;2023-04-15T07:09:24;14.35;;;8.48;;
78844;SDS011;68195;50.854;2.860;2023-04-15T07:11:50;14.57;;;7.95;;
78844;SDS011;68195;50.854;2.860;2023-04-15T07:14:16;14.02;;;8.73;;
78844;SDS011;68195;50.854;2.860;2023-04-15T07:16:42;12.00;;;8.98;;
78844;SDS011;68195;50.854;2.860;2023-04-15T07:19:07;14.70;;;8.32;;
78844;SDS011;68195;50.854;2.860;2023-04-15T07:21:32;13.07;;;8.57;;
78844;SDS011;68195;50.854;2.860;2023-04-15T07:23:58;10.80;;;7.93;;
78844;SDS011;68195;50.854;2.860;2023-04-15T07:26:26;11.63;;;7.63;;
78844;SDS011;68195;50.854;2.860;2023-04-15T07:28:51;12.18;;;7.43;;
78844;SDS011;68195;50.854;2.860;2023-04-15T07:31:19;13.52;;;7.78;;
78844;SDS011;68195;50.854;2.860;2023-04-15T07:33:47;14.25;;;8.60;;
78844;SDS011;68195;50.854;2.860;2023-04-15T07:36:12;12.02;;;7.75;;
78844;SDS011;68195;50.854;2.860;2023-04-15T07:38:40;13.80;;;7.82;;
78844;SDS011;68195;50.854;2.860;2023-04-15T07:41:05;10.52;;;8.07;;
78844;SDS011;68195;50.854;2.860;2023-04-15T07:43:36;11.48;;;7.85;;
78844;SDS011;68195;50.854;2.860;2023-04-15T07:46:04;12.32;;;7.32;;
78844;SDS011;68195;50.854;2.860;2023-04-15T07:48:31;13.02;;;7.22;;
78844;SDS011;68195;50.854;2.860;2023-04-15T07:50:57;11.05;;;6.70;;
78844;SDS011;68195;50.854;2.860;2023-04-15T07:53:26;11.65;;;7.60;;
78844;SDS011;68195;50.854;2.860;2023-04-15T07:55:54;12.77;;;7.30;;
78844;SDS011;68195;50.854;2.860;2023-04-15T07:58:22;10.50;;;7.90;;
78844;SDS011;68195;50.854;2.860;2023-04-15T08:00:47;13.35;;;7.93;;
78844;SDS011;68195;50.854;2.860;2023-04-15T08:03:13;12.10;;;7.15;;
78844;SDS011;68195;50.854;2.860;2023-04-15T08:05:39;12.85;;;7.90;;
78844;SDS011;68195;50.854;2.860;2023-04-15T08:08:05;11.55;;;7.65;;
78844;SDS011;68195;50.854;2.860;2023-04-15T08:10:33;13.73;;;8.15;;
78844;SDS011;68195;50.854;2.860;2023-04-15T08:13:01;13.68;;;7.38;;
78844;SDS011;68195;50.854;2.860;2023-04-15T08:15:29;12.15;;;7.53;;
78844;SDS011;68195;50.854;2.860;2023-04-15T08:17:56;10.52;;;6.43;;
78844;SDS011;68195;50.854;2.860;2023-04-15T08:20:24;10.68;;;7.18;;
78844;SDS011;68195;50.854;2.860;2023-04-15T08:22:52;11.00;;;7.20;;
78844;SDS011;68195;50.854;2.860;2023-04-15T08:25:17;10.32;;;6.88;;
78844;SDS011;68195;50.854;2.860;2023-04-15T08:30:10;12.00;;;6.95;;
78844;SDS011;68195;50.854;2.860;2023-04-15T08:32:35;10.85;;;6.85;;
78844;SDS011;68195;50.854;2.860;2023-04-15T08:35:04;8.75;;;6.22;;
78844;SDS011;68195;50.854;2.860;2023-04-15T08:37:30;9.65;;;6.82;;
78844;SDS011;68195;50.854;2.860;2023-04-15T08:39:56;11.27;;;6.50;;
78844;SDS011;68195;50.854;2.860;2023-04-15T08:42:30;8.75;;;5.93;;
78844;SDS011;68195;50.854;2.860;2023-04-15T08:44:59;10.75;;;6.45;;
78844;SDS011;68195;50.854;2.860;2023-04-15T08:47:28;9.05;;;5.93;;
78844;SDS011;68195;50.854;2.860;2023-04-15T08:49:56;9.90;;;5.50;;
78844;SDS011;68195;50.854;2.860;2023-04-15T08:52:24;6.68;;;5.30;;
78844;SDS011;68195;50.854;2.860;2023-04-15T08:54:50;9.85;;;6.07;;
78844;SDS011;68195;50.854;2.860;2023-04-15T08:57:22;6.82;;;5.10;;
78844;SDS011;68195;50.854;2.860;2023-04-15T08:59:52;8.02;;;4.50;;
78844;SDS011;68195;50.854;2.860;2023-04-15T09:02:20;8.35;;;4.15;;
78844;SDS011;68195;50.854;2.860;2023-04-15T09:04:47;5.00;;;3.40;;
78844;SDS011;68195;50.854;2.860;2023-04-15T09:07:14;6.95;;;3.70;;
78844;SDS011;68195;50.854;2.860;2023-04-15T09:09:42;4.10;;;3.40;;
78844;SDS011;68195;50.854;2.860;2023-04-15T09:12:08;6.82;;;4.75;;
78844;SDS011;68195;50.854;2.860;2023-04-15T09:14:34;8.07;;;3.95;;
78844;SDS011;68195;50.854;2.860;2023-04-15T09:17:01;5.15;;;3.85;;
78844;SDS011;68195;50.854;2.860;2023-04-15T09:19:27;8.95;;;3.95;;
78844;SDS011;68195;50.854;2.860;2023-04-15T09:21:56;5.57;;;3.63;;
78844;SDS011;68195;50.854;2.860;2023-04-15T09:24:23;6.63;;;4.30;;
78844;SDS011;68195;50.854;2.860;2023-04-15T09:26:55;8.18;;;4.30;;
78844;SDS011;68195;50.854;2.860;2023-04-15T09:29:25;6.43;;;4.30;;
78844;SDS011;68195;50.854;2.860;2023-04-15T09:31:53;8.80;;;6.20;;
78844;SDS011;68195;50.854;2.860;2023-04-15T09:34:20;8.65;;;6.18;;
78844;SDS011;68195;50.854;2.860;2023-04-15T09:37:07;8.63;;;7.00;;
78844;SDS011;68195;50.854;2.860;2023-04-15T09:39:50;14.30;;;9.02;;
78844;SDS011;68195;50.854;2.860;2023-04-15T09:42:19;11.30;;;8.15;;
78844;SDS011;68195;50.854;2.860;2023-04-15T09:47:29;14.10;;;7.68;;
78844;SDS011;68195;50.854;2.860;2023-04-15T09:49:55;16.08;;;9.20;;
78844;SDS011;68195;50.854;2.860;2023-04-15T09:52:21;19.35;;;11.13;;
78844;SDS011;68195;50.854;2.860;2023-04-15T09:54:47;17.88;;;8.65;;
78844;SDS011;68195;50.854;2.860;2023-04-15T09:57:12;13.30;;;8.13;;
78844;SDS011;68195;50.854;2.860;2023-04-15T09:59:37;16.77;;;8.45;;
78844;SDS011;68195;50.854;2.860;2023-04-15T10:02:04;9.88;;;7.35;;
78844;SDS011;68195;50.854;2.860;2023-04-15T10:04:34;13.90;;;9.35;;
78844;SDS011;68195;50.854;2.860;2023-04-15T10:07:02;14.18;;;10.02;;
78844;SDS011;68195;50.854;2.860;2023-04-15T10:09:30;12.48;;;8.07;;
78844;SDS011;68195;50.854;2.860;2023-04-15T10:11:57;10.60;;;6.43;;
78844;SDS011;68195;50.854;2.860;2023-04-15T10:14:23;7.95;;;6.60;;
78844;SDS011;68195;50.854;2.860;2023-04-15T10:16:54;9.98;;;8.20;;
78844;SDS011;68195;50.854;2.860;2023-04-15T10:19:21;11.02;;;7.05;;
78844;SDS011;68195;50.854;2.860;2023-04-15T10:21:55;10.18;;;6.68;;
78844;SDS011;68195;50.854;2.860;2023-04-15T10:24:24;10.18;;;6.38;;
78844;SDS011;68195;50.854;2.860;2023-04-15T10:26:50;7.40;;;6.07;;
78844;SDS011;68195;50.854;2.860;2023-04-15T10:29:19;8.77;;;6.05;;
78844;SDS011;68195;50.854;2.860;2023-04-15T10:31:44;10.68;;;6.00;;
78844;SDS011;68195;50.854;2.860;2023-04-15T10:36:36;11.48;;;5.53;;
78844;SDS011;68195;50.854;2.860;2023-04-15T10:39:02;8.40;;;5.65;;
78844;SDS011;68195;50.854;2.860;2023-04-15T10:42:07;10.68;;;7.45;;
78844;SDS011;68195;50.854;2.860;2023-04-15T10:44:36;13.20;;;5.90;;
78844;SDS011;68195;50.854;2.860;2023-04-15T10:47:16;7.82;;;6.00;;
78844;SDS011;68195;50.854;2.860;2023-04-15T10:49:47;13.30;;;7.50;;
78844;SDS011;68195;50.854;2.860;2023-04-15T10:52:20;10.32;;;6.28;;
78844;SDS011;68195;50.854;2.860;2023-04-15T10:54:47;13.68;;;8.43;;
78844;SDS011;68195;50.854;2.860;2023-04-15T10:57:20;12.65;;;9.35;;
78844;SDS011;68195;50.854;2.860;2023-04-15T11:02:38;12.57;;;9.50;;
78844;SDS011;68195;50.854;2.860;2023-04-15T11:05:08;13.35;;;8.63;;
78844;SDS011;68195;50.854;2.860;2023-04-15T11:12:42;12.50;;;8.15;;
78844;SDS011;68195;50.854;2.860;2023-04-15T11:18:01;14.27;;;9.10;;
78844;SDS011;68195;50.854;2.860;2023-04-15T11:20:33;14.27;;;9.88;;
78844;SDS011;68195;50.854;2.860;2023-04-15T11:22:59;13.77;;;8.93;;
78844;SDS011;68195;50.854;2.860;2023-04-15T11:25:25;9.85;;;6.50;;
78844;SDS011;68195;50.854;2.860;2023-04-15T11:27:55;11.40;;;7.80;;
78844;SDS011;68195;50.854;2.860;2023-04-15T11:30:25;11.32;;;7.55;;
78844;SDS011;68195;50.854;2.860;2023-04-15T11:32:56;9.88;;;7.63;;
78844;SDS011;68195;50.854;2.860;2023-04-15T11:35:23;12.40;;;8.20;;
78844;SDS011;68195;50.854;2.860;2023-04-15T11:37:51;10.63;;;7.85;;
78844;SDS011;68195;50.854;2.860;2023-04-15T11:40:19;10.25;;;8.00;;
78844;SDS011;68195;50.854;2.860;2023-04-15T11:43:08;12.10;;;6.97;;
78844;SDS011;68195;50.854;2.860;2023-04-15T11:45:37;9.63;;;7.82;;
78844;SDS011;68195;50.854;2.860;2023-04-15T11:48:12;9.60;;;7.38;;
78844;SDS011;68195;50.854;2.860;2023-04-15T11:50:37;9.88;;;6.75;;
78844;SDS011;68195;50.854;2.860;2023-04-15T11:53:07;10.25;;;6.43;;
78844;SDS011;68195;50.854;2.860;2023-04-15T11:55:45;7.28;;;5.18;;
78844;SDS011;68195;50.854;2.860;2023-04-15T11:58:16;7.20;;;5.80;;
78844;SDS011;68195;50.854;2.860;2023-04-15T12:00:53;11.25;;;6.30;;
78844;SDS011;68195;50.854;2.860;2023-04-15T12:09:14;23.27;;;7.10;;
78844;SDS011;68195;50.854;2.860;2023-04-15T12:21:56;10.10;;;6.32;;
78844;SDS011;68195;50.854;2.860;2023-04-15T12:24:26;13.10;;;7.38;;
78844;SDS011;68195;50.854;2.860;2023-04-15T12:27:00;9.75;;;6.10;;
78844;SDS011;68195;50.854;2.860;2023-04-15T12:29:31;9.95;;;7.00;;
78844;SDS011;68195;50.854;2.860;2023-04-15T12:32:03;10.80;;;7.57;;
78844;SDS011;68195;50.854;2.860;2023-04-15T12:34:35;10.75;;;6.78;;
78844;SDS011;68195;50.854;2.860;2023-04-15T12:37:10;11.15;;;7.95;;
78844;SDS011;68195;50.854;2.860;2023-04-15T12:39:40;8.35;;;6.25;;
78844;SDS011;68195;50.854;2.860;2023-04-15T12:42:10;11.77;;;7.93;;
78844;SDS011;68195;50.854;2.860;2023-04-15T12:44:36;9.82;;;6.53;;
78844;SDS011;68195;50.854;2.860;2023-04-15T12:47:03;10.63;;;7.43;;
78844;SDS011;68195;50.854;2.860;2023-04-15T12:51:55;8.82;;;6.30;;
78844;SDS011;68195;50.854;2.860;2023-04-15T12:54:24;9.48;;;6.00;;
78844;SDS011;68195;50.854;2.860;2023-04-15T12:56:50;7.93;;;5.75;;
78844;SDS011;68195;50.854;2.860;2023-04-15T12:59:19;8.07;;;5.50;;
78844;SDS011;68195;50.854;2.860;2023-04-15T13:04:11;7.72;;;5.03;;
78844;SDS011;68195;50.854;2.860;2023-04-15T13:06:39;8.32;;;6.57;;
78844;SDS011;68195;50.854;2.860;2023-04-15T13:09:06;12.65;;;8.18;;
78844;SDS011;68195;50.854;2.860;2023-04-15T13:11:32;11.27;;;7.03;;
78844;SDS011;68195;50.854;2.860;2023-04-15T13:16:33;8.38;;;6.30;;
78844;SDS011;68195;50.854;2.860;2023-04-15T13:21:27;9.63;;;7.30;;
78844;SDS011;68195;50.854;2.860;2023-04-15T13:26:18;10.60;;;6.40;;
78844;SDS011;68195;50.854;2.860;2023-04-15T13:31:11;11.40;;;7.55;;
78844;SDS011;68195;50.854;2.860;2023-04-15T13:33:37;9.80;;;6.82;;
78844;SDS011;68195;50.854;2.860;2023-04-15T13:36:05;10.05;;;7.00;;
78844;SDS011;68195;50.854;2.860;2023-04-15T13:38:30;13.95;;;9.00;;
78844;SDS011;68195;50.854;2.860;2023-04-15T13:40:56;13.38;;;8.40;;
78844;SDS011;68195;50.854;2.860;2023-04-15T13:43:25;11.70;;;7.60;;
78844;SDS011;68195;50.854;2.860;2023-04-15T13:45:53;11.15;;;6.90;;
78844;SDS011;68195;50.854;2.860;2023-04-15T13:50:43;9.23;;;5.93;;
78844;SDS011;68195;50.854;2.860;2023-04-15T13:55:35;10.45;;;6.55;;
78844;SDS011;68195;50.854;2.860;2023-04-15T13:58:02;11.00;;;7.40;;
78844;SDS011;68195;50.854;2.860;2023-04-15T14:00:28;14.65;;;7.93;;
78844;SDS011;68195;50.854;2.860;2023-04-15T14:05:21;9.75;;;7.45;;
78844;SDS011;68195;50.854;2.860;2023-04-15T14:10:14;10.37;;;6.73;;
78844;SDS011;68195;50.854;2.860;2023-04-15T14:12:41;9.82;;;5.97;;
78844;SDS011;68195;50.854;2.860;2023-04-15T14:15:09;9.02;;;5.50;;
78844;SDS011;68195;50.854;2.860;2023-04-15T14:17:36;12.05;;;6.95;;
78844;SDS011;68195;50.854;2.860;2023-04-15T14:22:28;9.18;;;6.40;;
78844;SDS011;68195;50.854;2.860;2023-04-15T14:24:53;10.23;;;6.22;;
78844;SDS011;68195;50.854;2.860;2023-04-15T14:27:21;10.95;;;5.38;;
78844;SDS011;68195;50.854;2.860;2023-04-15T14:29:47;10.15;;;6.10;;
78844;SDS011;68195;50.854;2.860;2023-04-15T14:34:40;12.90;;;7.53;;
78844;SDS011;68195;50.854;2.860;2023-04-15T14:37:08;13.05;;;7.07;;
78844;SDS011;68195;50.854;2.860;2023-04-15T14:39:34;8.93;;;6.05;;
78844;SDS011;68195;50.854;2.860;2023-04-15T14:44:25;11.80;;;6.95;;
78844;SDS011;68195;50.854;2.860;2023-04-15T14:46:50;11.13;;;6.50;;
78844;SDS011;68195;50.854;2.860;2023-04-15T14:49:16;12.93;;;6.45;;
78844;SDS011;68195;50.854;2.860;2023-04-15T14:51:46;11.25;;;7.10;;
78844;SDS011;68195;50.854;2.860;2023-04-15T14:54:14;9.82;;;5.82;;
78844;SDS011;68195;50.854;2.860;2023-04-15T14:56:39;9.60;;;5.72;;
78844;SDS011;68195;50.854;2.860;2023-04-15T14:59:05;8.43;;;6.03;;
78844;SDS011;68195;50.854;2.860;2023-04-15T15:01:32;10.02;;;5.03;;
78844;SDS011;68195;50.854;2.860;2023-04-15T15:03:58;8.52;;;4.82;;
78844;SDS011;68195;50.854;2.860;2023-04-15T15:06:26;12.38;;;6.55;;
78844;SDS011;68195;50.854;2.860;2023-04-15T15:08:53;9.63;;;5.43;;
78844;SDS011;68195;50.854;2.860;2023-04-15T15:11:19;9.35;;;4.80;;
78844;SDS011;68195;50.854;2.860;2023-04-15T15:13:47;8.20;;;4.95;;
78844;SDS011;68195;50.854;2.860;2023-04-15T15:16:12;10.10;;;5.50;;
78844;SDS011;68195;50.854;2.860;2023-04-15T15:21:05;9.25;;;4.50;;
78844;SDS011;68195;50.854;2.860;2023-04-15T15:23:30;8.00;;;4.53;;
78844;SDS011;68195;50.854;2.860;2023-04-15T15:28:22;7.45;;;3.15;;
78844;SDS011;68195;50.854;2.860;2023-04-15T15:30:49;4.75;;;2.75;;
78844;SDS011;68195;50.854;2.860;2023-04-15T15:33:17;5.13;;;2.80;;
78844;SDS011;68195;50.854;2.860;2023-04-15T15:35:50;4.90;;;2.83;;
78844;SDS011;68195;50.854;2.860;2023-04-15T15:38:20;4.07;;;2.20;;
78844;SDS011;68195;50.854;2.860;2023-04-15T15:40:46;4.43;;;2.40;;
78844;SDS011;68195;50.854;2.860;2023-04-15T15:43:11;5.07;;;2.33;;
78844;SDS011;68195;50.854;2.860;2023-04-15T15:45:39;4.40;;;2.05;;
78844;SDS011;68195;50.854;2.860;2023-04-15T15:48:05;4.95;;;2.50;;
78844;SDS011;68195;50.854;2.860;2023-04-15T15:50:31;4.50;;;2.42;;
78844;SDS011;68195;50.854;2.860;2023-04-15T15:55:22;5.00;;;2.55;;
78844;SDS011;68195;50.854;2.860;2023-04-15T15:57:49;3.50;;;1.73;;
78844;SDS011;68195;50.854;2.860;2023-04-15T16:00:15;4.20;;;2.67;;
78844;SDS011;68195;50.854;2.860;2023-04-15T16:05:07;5.88;;;2.53;;
78844;SDS011;68195;50.854;2.860;2023-04-15T16:07:35;6.88;;;2.35;;